Time;durP1;ratioP1;P1;durP2;ratioP2;P2;SDS_P1;SDS_P2;PMS_P1;PMS_P2;Temp;Humidity;BMP_temperature;BMP_pressure;BME280_temperature;BME280_humidity;BME280_pressure;Samples;Min_cycle;Max_cycle;Signal;HPM_P1;HPM_P2
2022/01/28 00:05:21;;;;;;;3.05;1.80;;;;;;;;;;5127556;27;24508;-58
2022/01/28 00:07:46;;;;;;;2.67;1.80;;;;;;;;;;5127626;27;24416;-58
2022/01/28 00:10:12;;;;;;;3.10;1.50;;;;;;;;;;5124645;27;24458;-57
2022/01/28 00:15:31;;;;;;;2.97;1.80;;;;;;;;;;5126497;27;24513;-58
2022/01/28 00:37:05;;;;;;;3.80;1.70;;;;;;;;;;5121965;27;24416;-59
2022/01/28 00:39:30;;;;;;;3.75;1.60;;;;;;;;;;5124975;27;24445;-59
2022/01/28 00:41:56;;;;;;;4.43;1.75;;;;;;;;;;5123060;27;25016;-58
2022/01/28 00:44:21;;;;;;;3.88;1.38;;;;;;;;;;5120802;27;24458;-59
2022/01/28 00:46:46;;;;;;;4.90;1.70;;;;;;;;;;5117999;27;24516;-58
2022/01/28 00:49:11;;;;;;;4.17;1.30;;;;;;;;;;5127513;27;24754;-57
2022/01/28 00:51:37;;;;;;;5.00;1.60;;;;;;;;;;5123340;27;24425;-57
2022/01/28 00:54:02;;;;;;;3.70;1.37;;;;;;;;;;5125738;27;24477;-57
2022/01/28 00:56:27;;;;;;;3.60;1.50;;;;;;;;;;5117083;27;24471;-60
2022/01/28 01:14:16;;;;;;;2.60;1.10;;;;;;;;;;5123102;28;24416;-57
2022/01/28 01:17:00;;;;;;;5.07;1.70;;;;;;;;;;5123870;28;24938;-57
2022/01/28 01:19:26;;;;;;;4.85;1.60;;;;;;;;;;5118174;28;24461;-58
2022/01/28 01:21:56;;;;;;;4.65;1.88;;;;;;;;;;5123252;28;24934;-58
2022/01/28 01:24:24;;;;;;;5.22;1.50;;;;;;;;;;5124493;28;24519;-59
2022/01/28 01:26:49;;;;;;;2.95;1.40;;;;;;;;;;5113383;28;24777;-60
2022/01/28 01:29:17;;;;;;;4.25;1.55;;;;;;;;;;5126698;28;24417;-59
2022/01/28 01:31:43;;;;;;;4.65;1.65;;;;;;;;;;5126110;28;24818;-59
2022/01/28 01:34:21;;;;;;;3.63;1.70;;;;;;;;;;5125689;28;24966;-59
2022/01/28 01:36:46;;;;;;;5.10;1.80;;;;;;;;;;5126249;28;24405;-58
2022/01/28 01:39:15;;;;;;;6.00;1.93;;;;;;;;;;5123496;28;24449;-59
2022/01/28 01:41:47;;;;;;;3.80;1.60;;;;;;;;;;5126804;28;24517;-58
2022/01/28 01:44:25;;;;;;;5.47;2.00;;;;;;;;;;5127749;28;24824;-59
2022/01/28 01:52:00;;;;;;;3.78;1.70;;;;;;;;;;5126132;28;24446;-59
2022/01/28 01:52:35;;;;;;;5.20;1.80;;;;;;;;;;5119101;28;24396;-59
2022/01/28 01:55:00;;;;;;;5.50;1.75;;;;;;;;;;5124580;28;24854;-58
2022/01/28 01:57:25;;;;;;;3.90;1.60;;;;;;;;;;5125141;27;24471;-59
2022/01/28 01:59:51;;;;;;;4.30;1.90;;;;;;;;;;5119772;27;24424;-59
2022/01/28 02:02:16;;;;;;;5.37;2.10;;;;;;;;;;5130461;27;24421;-59
2022/01/28 02:04:41;;;;;;;5.47;1.88;;;;;;;;;;5129738;27;25010;-59
2022/01/28 02:07:06;;;;;;;6.45;1.90;;;;;;;;;;5130295;27;24474;-59
2022/01/28 02:09:31;;;;;;;6.10;2.07;;;;;;;;;;5130687;27;24421;-58
2022/01/28 02:11:57;;;;;;;4.37;1.70;;;;;;;;;;5130275;27;24506;-58
2022/01/28 02:14:22;;;;;;;6.10;1.80;;;;;;;;;;5129612;27;24440;-58
2022/01/28 02:16:47;;;;;;;6.03;1.70;;;;;;;;;;5129657;27;24969;-58
2022/01/28 02:19:12;;;;;;;5.10;1.80;;;;;;;;;;5130241;27;24419;-58
2022/01/28 02:21:44;;;;;;;3.00;1.60;;;;;;;;;;5130678;27;24946;-57
2022/01/28 02:24:12;;;;;;;4.30;1.60;;;;;;;;;;5126843;27;24848;-57
2022/01/28 02:26:38;;;;;;;5.85;2.00;;;;;;;;;;5129495;27;24409;-58
2022/01/28 02:29:10;;;;;;;5.40;1.80;;;;;;;;;;5129098;27;24413;-58
2022/01/28 02:31:35;;;;;;;8.18;1.77;;;;;;;;;;5129676;27;24413;-58
2022/01/28 02:34:00;;;;;;;4.50;1.70;;;;;;;;;;5129768;27;25474;-58
2022/01/28 02:36:26;;;;;;;4.43;1.73;;;;;;;;;;5130042;27;24417;-58
2022/01/28 02:38:52;;;;;;;7.40;2.13;;;;;;;;;;5124907;27;24444;-58
2022/01/28 02:41:17;;;;;;;4.80;1.70;;;;;;;;;;5130073;27;24421;-58
2022/01/28 02:43:56;;;;;;;2.67;1.70;;;;;;;;;;5129306;27;24557;-58
2022/01/28 02:46:23;;;;;;;2.83;1.35;;;;;;;;;;5124570;27;24417;-59
2022/01/28 02:48:59;;;;;;;3.40;1.85;;;;;;;;;;5129553;27;24857;-58
2022/01/28 02:51:24;;;;;;;6.75;1.80;;;;;;;;;;5127089;27;24424;-59
2022/01/28 02:53:56;;;;;;;6.22;1.60;;;;;;;;;;5111420;27;24413;-59
2022/01/28 02:56:35;;;;;;;3.45;1.45;;;;;;;;;;5129658;27;24453;-59
2022/01/28 02:59:01;;;;;;;4.63;1.70;;;;;;;;;;5129707;27;24461;-58
2022/01/28 03:01:26;;;;;;;5.13;1.80;;;;;;;;;;5120951;27;24412;-58
2022/01/28 03:03:51;;;;;;;6.33;1.93;;;;;;;;;;5124046;27;24408;-58
2022/01/28 03:06:18;;;;;;;4.25;1.90;;;;;;;;;;5125268;27;24950;-58
2022/01/28 03:08:50;;;;;;;4.53;1.60;;;;;;;;;;5127518;27;24405;-58
2022/01/28 03:14:01;;;;;;;4.57;1.90;;;;;;;;;;5124402;27;24982;-58
2022/01/28 03:16:29;;;;;;;4.05;1.52;;;;;;;;;;5126474;27;24554;-59
2022/01/28 03:19:01;;;;;;;5.80;1.80;;;;;;;;;;5128602;27;24413;-58
2022/01/28 03:23:56;;;;;;;4.45;1.77;;;;;;;;;;5119516;27;24420;-58
2022/01/28 03:26:24;;;;;;;5.93;1.70;;;;;;;;;;5128523;27;24445;-58
2022/01/28 03:28:49;;;;;;;4.15;1.80;;;;;;;;;;5127881;27;24417;-58
2022/01/28 03:31:14;;;;;;;4.80;1.88;;;;;;;;;;5122795;27;24451;-58
2022/01/28 03:33:39;;;;;;;1.93;1.40;;;;;;;;;;5127477;27;24951;-59
2022/01/28 03:36:07;;;;;;;3.53;1.75;;;;;;;;;;5128430;27;24409;-58
2022/01/28 03:38:33;;;;;;;2.47;1.35;;;;;;;;;;5126124;27;24457;-58
2022/01/28 03:40:58;;;;;;;5.70;1.87;;;;;;;;;;5127764;27;24413;-58
2022/01/28 03:43:23;;;;;;;3.10;1.60;;;;;;;;;;5126212;27;24417;-58
2022/01/28 03:45:48;;;;;;;4.80;1.50;;;;;;;;;;5128466;27;24873;-58
2022/01/28 03:48:14;;;;;;;2.37;1.70;;;;;;;;;;5128430;27;24971;-58
2022/01/28 03:50:39;;;;;;;4.10;1.70;;;;;;;;;;5126970;27;24451;-59
2022/01/28 03:53:05;;;;;;;5.00;1.60;;;;;;;;;;5126455;27;24732;-58
2022/01/28 03:55:30;;;;;;;4.68;1.80;;;;;;;;;;5120080;27;25020;-59
2022/01/28 03:57:55;;;;;;;7.00;1.90;;;;;;;;;;5128304;27;24419;-58
2022/01/28 04:00:25;;;;;;;6.72;2.10;;;;;;;;;;5127864;27;24509;-58
2022/01/28 04:02:58;;;;;;;7.18;2.00;;;;;;;;;;5126007;27;24412;-57
2022/01/28 04:11:24;;;;;;;6.35;2.13;;;;;;;;;;5127392;27;24421;-58
2022/01/28 04:11:27;;;;;;;5.77;1.80;;;;;;;;;;5127596;27;24458;-57
2022/01/28 04:13:50;;;;;;;2.72;1.63;;;;;;;;;;5127349;27;24397;-58
2022/01/28 04:17:19;;;;;;;6.10;1.90;;;;;;;;;;5120871;27;24411;-57
2022/01/28 04:19:19;;;;;;;6.33;2.00;;;;;;;;;;5127528;27;24829;-57
2022/01/28 04:21:44;;;;;;;6.97;2.20;;;;;;;;;;5121883;27;24439;-59
2022/01/28 04:24:09;;;;;;;5.77;2.07;;;;;;;;;;5126244;27;24962;-58
2022/01/28 04:26:34;;;;;;;5.65;2.40;;;;;;;;;;5123936;27;24405;-59
2022/01/28 04:28:59;;;;;;;4.53;1.80;;;;;;;;;;5127754;27;24441;-58
2022/01/28 04:31:25;;;;;;;8.82;2.35;;;;;;;;;;5127596;27;24486;-58
2022/01/28 04:33:53;;;;;;;7.25;2.17;;;;;;;;;;5125334;27;25029;-57
2022/01/28 04:36:18;;;;;;;5.30;1.88;;;;;;;;;;5123857;27;24441;-58
2022/01/28 04:39:12;;;;;;;7.68;1.80;;;;;;;;;;5125296;27;24457;-58
2022/01/28 04:41:58;;;;;;;5.55;2.20;;;;;;;;;;5126243;27;24411;-58
2022/01/28 04:44:34;;;;;;;5.43;2.17;;;;;;;;;;5125521;27;24682;-58
2022/01/28 04:47:07;;;;;;;4.72;2.10;;;;;;;;;;5126883;27;24434;-58
2022/01/28 05:03:18;;;;;;;5.75;2.20;;;;;;;;;;5120272;28;24557;-58
2022/01/28 05:11:19;;;;;;;5.80;2.40;;;;;;;;;;5121124;28;24599;-58
2022/01/28 05:14:09;;;;;;;4.53;2.20;;;;;;;;;;5123158;28;24919;-57
2022/01/28 05:27:17;;;;;;;7.07;2.30;;;;;;;;;;5127018;28;24421;-58
2022/01/28 05:29:42;;;;;;;7.17;2.90;;;;;;;;;;5126802;28;24456;-58
2022/01/28 05:32:08;;;;;;;4.77;2.00;;;;;;;;;;5109977;27;24943;-58
2022/01/28 05:34:33;;;;;;;4.90;2.10;;;;;;;;;;5127637;27;24405;-58
2022/01/28 05:36:59;;;;;;;7.43;2.60;;;;;;;;;;5130603;27;25047;-58
2022/01/28 05:39:24;;;;;;;8.13;2.87;;;;;;;;;;5122052;27;24453;-58
2022/01/28 05:41:49;;;;;;;7.90;2.35;;;;;;;;;;5126493;27;24535;-59
2022/01/28 05:44:14;;;;;;;6.07;2.80;;;;;;;;;;5130656;27;24412;-58
2022/01/28 05:46:40;;;;;;;6.63;2.53;;;;;;;;;;5125239;27;24444;-58
2022/01/28 05:49:05;;;;;;;5.80;2.30;;;;;;;;;;5129001;27;25031;-59
2022/01/28 05:51:30;;;;;;;8.98;2.55;;;;;;;;;;5127220;27;24421;-58
2022/01/28 05:53:59;;;;;;;5.63;2.20;;;;;;;;;;5129547;27;24576;-58
2022/01/28 05:56:27;;;;;;;6.50;2.38;;;;;;;;;;5124975;27;24429;-58
2022/01/28 05:58:52;;;;;;;7.65;2.60;;;;;;;;;;5125560;27;24557;-58
2022/01/28 06:01:17;;;;;;;5.83;2.40;;;;;;;;;;5124889;27;24523;-58
2022/01/28 06:03:44;;;;;;;5.77;2.77;;;;;;;;;;5129989;27;24784;-59
2022/01/28 06:06:13;;;;;;;7.20;2.97;;;;;;;;;;5129953;27;24583;-59
2022/01/28 06:08:38;;;;;;;6.90;2.60;;;;;;;;;;5125473;27;24412;-59
2022/01/28 06:11:03;;;;;;;6.72;2.67;;;;;;;;;;5123650;27;24429;-58
2022/01/28 06:13:28;;;;;;;8.27;2.63;;;;;;;;;;5126044;27;24412;-58
2022/01/28 06:15:56;;;;;;;8.10;2.90;;;;;;;;;;5124478;27;24450;-58
2022/01/28 06:18:21;;;;;;;8.10;2.60;;;;;;;;;;5113607;27;24994;-59
2022/01/28 06:20:46;;;;;;;9.32;2.63;;;;;;;;;;5124557;27;24421;-59
2022/01/28 06:23:12;;;;;;;9.52;2.83;;;;;;;;;;5123768;27;24927;-59
2022/01/28 06:25:39;;;;;;;9.35;2.90;;;;;;;;;;5120587;27;24553;-59
2022/01/28 06:28:04;;;;;;;7.13;2.92;;;;;;;;;;5123253;27;24425;-59
2022/01/28 06:30:29;;;;;;;6.32;2.40;;;;;;;;;;5118539;27;24422;-59
2022/01/28 06:32:54;;;;;;;7.50;2.60;;;;;;;;;;5124705;27;24520;-58
2022/01/28 06:35:19;;;;;;;4.27;2.30;;;;;;;;;;5113793;27;24516;-58
2022/01/28 06:37:45;;;;;;;6.25;2.20;;;;;;;;;;5112656;27;24449;-59
2022/01/28 06:40:11;;;;;;;10.40;3.10;;;;;;;;;;5116625;27;24887;-59
2022/01/28 06:42:37;;;;;;;11.43;3.50;;;;;;;;;;5122682;27;24561;-58
2022/01/28 06:45:02;;;;;;;6.77;3.10;;;;;;;;;;5116463;27;24547;-59
2022/01/28 06:47:28;;;;;;;10.33;2.73;;;;;;;;;;5117845;27;24437;-59
2022/01/28 06:49:53;;;;;;;8.67;3.27;;;;;;;;;;5121067;27;24821;-58
2022/01/28 06:52:18;;;;;;;9.30;3.27;;;;;;;;;;5125688;27;24992;-58
2022/01/28 06:54:43;;;;;;;5.43;2.70;;;;;;;;;;5124764;27;24424;-58
2022/01/28 06:57:09;;;;;;;10.33;3.23;;;;;;;;;;5119701;27;25021;-58
2022/01/28 06:59:34;;;;;;;5.95;2.70;;;;;;;;;;5120800;27;24423;-58
2022/01/28 07:01:59;;;;;;;7.80;2.80;;;;;;;;;;5124656;27;24462;-58
2022/01/28 07:04:24;;;;;;;9.95;3.20;;;;;;;;;;5119282;27;24771;-59
2022/01/28 07:06:50;;;;;;;7.45;2.95;;;;;;;;;;5121908;27;24413;-59
2022/01/28 07:09:16;;;;;;;9.43;3.17;;;;;;;;;;5117902;27;25511;-59
2022/01/28 07:11:43;;;;;;;7.78;3.00;;;;;;;;;;5121011;27;24523;-59
2022/01/28 07:14:08;;;;;;;9.45;3.67;;;;;;;;;;5115052;27;24405;-59
2022/01/28 07:16:33;;;;;;;7.40;2.83;;;;;;;;;;5124619;27;24530;-59
2022/01/28 07:18:58;;;;;;;5.50;2.80;;;;;;;;;;5121000;27;24749;-59
2022/01/28 07:21:24;;;;;;;9.03;3.27;;;;;;;;;;5119834;27;24524;-58
2022/01/28 07:23:49;;;;;;;8.27;3.40;;;;;;;;;;5125995;27;24453;-59
2022/01/28 07:26:14;;;;;;;8.33;3.00;;;;;;;;;;5120900;27;24428;-59
2022/01/28 07:28:41;;;;;;;8.77;2.90;;;;;;;;;;5124473;27;24431;-59
2022/01/28 07:31:08;;;;;;;6.97;3.00;;;;;;;;;;5122331;27;24485;-60
2022/01/28 07:33:33;;;;;;;8.48;2.90;;;;;;;;;;5116211;27;25328;-60
2022/01/28 07:35:59;;;;;;;7.50;2.85;;;;;;;;;;5117601;27;24425;-59
2022/01/28 07:38:24;;;;;;;9.52;2.90;;;;;;;;;;5125120;27;24994;-58
2022/01/28 07:40:49;;;;;;;7.07;2.80;;;;;;;;;;5120497;27;24581;-58
2022/01/28 07:43:15;;;;;;;9.07;3.22;;;;;;;;;;5127329;27;24428;-58
2022/01/28 07:45:40;;;;;;;7.80;3.00;;;;;;;;;;5123097;27;24532;-58
2022/01/28 07:48:05;;;;;;;6.18;2.70;;;;;;;;;;5118234;27;24417;-62
2022/01/28 07:50:31;;;;;;;10.20;2.80;;;;;;;;;;5122016;27;24431;-59
2022/01/28 07:52:56;;;;;;;7.70;2.70;;;;;;;;;;5121524;27;24428;-59
2022/01/28 07:55:21;;;;;;;7.43;2.67;;;;;;;;;;5122890;27;24996;-59
2022/01/28 07:57:46;;;;;;;6.90;2.90;;;;;;;;;;5126439;27;24377;-59
2022/01/28 08:00:12;;;;;;;6.90;2.53;;;;;;;;;;5128716;27;24388;-60
2022/01/28 08:02:38;;;;;;;9.07;3.47;;;;;;;;;;5128599;27;24417;-59
2022/01/28 08:05:03;;;;;;;6.43;2.80;;;;;;;;;;5109915;27;24444;-59
2022/01/28 08:07:28;;;;;;;9.30;2.63;;;;;;;;;;5128108;27;24789;-58
2022/01/28 08:09:54;;;;;;;8.03;3.13;;;;;;;;;;5128294;27;24957;-59
2022/01/28 08:12:19;;;;;;;9.50;2.93;;;;;;;;;;5125446;27;25109;-59
2022/01/28 08:14:44;;;;;;;7.80;2.90;;;;;;;;;;5126905;27;24434;-59
2022/01/28 08:17:11;;;;;;;7.00;3.10;;;;;;;;;;5128153;27;24446;-59
2022/01/28 08:19:36;;;;;;;10.10;2.90;;;;;;;;;;5127957;27;24854;-58
2022/01/28 08:22:01;;;;;;;8.52;2.97;;;;;;;;;;5127657;27;24404;-58
2022/01/28 08:24:26;;;;;;;7.10;3.00;;;;;;;;;;5128087;27;25142;-58
2022/01/28 08:26:51;;;;;;;8.03;2.70;;;;;;;;;;5127541;27;24766;-59
2022/01/28 08:29:17;;;;;;;7.80;2.90;;;;;;;;;;5128023;27;24412;-59
2022/01/28 08:31:42;;;;;;;7.28;2.60;;;;;;;;;;5127867;27;24385;-59
2022/01/28 08:34:08;;;;;;;4.90;2.40;;;;;;;;;;5127133;27;24731;-59
2022/01/28 08:36:34;;;;;;;6.83;2.53;;;;;;;;;;5127453;27;24441;-59
2022/01/28 08:38:59;;;;;;;6.60;2.50;;;;;;;;;;5127075;27;24508;-59
2022/01/28 08:41:24;;;;;;;5.53;2.50;;;;;;;;;;5125443;27;24401;-59
2022/01/28 08:43:51;;;;;;;7.93;2.50;;;;;;;;;;5127466;27;24492;-58
2022/01/28 08:46:16;;;;;;;5.43;2.30;;;;;;;;;;5127921;27;24388;-59
2022/01/28 08:48:42;;;;;;;10.20;3.25;;;;;;;;;;5127103;27;24404;-59
2022/01/28 08:51:07;;;;;;;6.40;2.60;;;;;;;;;;5127809;27;24424;-59
2022/01/28 08:53:32;;;;;;;5.97;2.60;;;;;;;;;;5126824;27;24954;-59
2022/01/28 08:55:57;;;;;;;7.77;2.93;;;;;;;;;;5127273;27;24922;-60
2022/01/28 08:58:23;;;;;;;9.13;2.93;;;;;;;;;;5125979;27;24444;-59
2022/01/28 09:00:50;;;;;;;6.90;2.80;;;;;;;;;;5127251;27;24401;-59
2022/01/28 09:03:16;;;;;;;9.55;3.17;;;;;;;;;;5127423;27;24487;-59
2022/01/28 09:05:41;;;;;;;8.93;3.20;;;;;;;;;;5127475;28;24557;-59
2022/01/28 09:08:08;;;;;;;10.47;3.50;;;;;;;;;;5131606;27;24480;-58
2022/01/28 09:10:35;;;;;;;7.95;3.00;;;;;;;;;;5133767;27;25037;-58
2022/01/28 09:15:26;;;;;;;9.20;3.03;;;;;;;;;;5133749;27;24954;-58
2022/01/28 09:17:51;;;;;;;10.07;3.72;;;;;;;;;;5133950;27;24439;-59
2022/01/28 09:20:16;;;;;;;9.27;3.30;;;;;;;;;;5134069;27;24931;-61
2022/01/28 09:22:42;;;;;;;13.02;3.47;;;;;;;;;;5133953;27;24922;-59
2022/01/28 09:25:07;;;;;;;11.03;3.50;;;;;;;;;;5133695;27;24986;-59
2022/01/28 09:27:32;;;;;;;9.03;3.13;;;;;;;;;;5133943;27;24411;-59
2022/01/28 09:29:57;;;;;;;12.53;3.70;;;;;;;;;;5134158;27;24428;-58
2022/01/28 09:32:23;;;;;;;8.83;3.40;;;;;;;;;;5133958;27;24389;-59
2022/01/28 09:34:48;;;;;;;12.30;3.70;;;;;;;;;;5131341;27;24450;-59
2022/01/28 09:37:13;;;;;;;8.90;3.30;;;;;;;;;;5133920;27;24430;-58
2022/01/28 09:39:43;;;;;;;11.07;3.77;;;;;;;;;;5133512;27;24464;-59
2022/01/28 09:42:12;;;;;;;8.60;3.50;;;;;;;;;;5133500;27;24453;-59
2022/01/28 09:44:38;;;;;;;10.80;3.80;;;;;;;;;;5133781;27;24783;-58
2022/01/28 09:47:04;;;;;;;11.35;3.67;;;;;;;;;;5134318;27;24480;-58
2022/01/28 09:49:31;;;;;;;10.80;3.63;;;;;;;;;;5133909;27;24555;-58
2022/01/28 09:51:56;;;;;;;10.95;3.55;;;;;;;;;;5131374;27;25266;-58
2022/01/28 09:54:21;;;;;;;7.30;2.80;;;;;;;;;;5133945;27;24420;-59
2022/01/28 09:56:46;;;;;;;9.93;3.67;;;;;;;;;;5133474;27;24397;-59
2022/01/28 09:59:12;;;;;;;11.17;3.60;;;;;;;;;;5133898;27;24486;-58
2022/01/28 10:01:53;;;;;;;10.55;3.38;;;;;;;;;;5133578;27;24393;-58
2022/01/28 10:04:18;;;;;;;10.32;3.42;;;;;;;;;;5133094;27;24968;-58
2022/01/28 10:06:44;;;;;;;11.07;3.10;;;;;;;;;;5133762;27;24496;-59
2022/01/28 10:09:10;;;;;;;8.20;2.85;;;;;;;;;;5133649;27;24404;-59
2022/01/28 10:11:37;;;;;;;8.98;3.40;;;;;;;;;;5133471;27;24697;-59
2022/01/28 10:14:09;;;;;;;9.63;2.97;;;;;;;;;;5133808;27;24405;-58
2022/01/28 10:16:34;;;;;;;10.55;3.45;;;;;;;;;;5133751;27;24484;-59
2022/01/28 10:19:01;;;;;;;10.40;3.30;;;;;;;;;;5131306;27;24836;-59
2022/01/28 10:21:28;;;;;;;7.03;3.10;;;;;;;;;;5130387;27;24400;-59
2022/01/28 10:24:11;;;;;;;14.32;4.00;;;;;;;;;;5129910;27;24397;-57
2022/01/28 10:26:38;;;;;;;10.75;4.10;;;;;;;;;;5129981;27;24975;-59
2022/01/28 10:29:05;;;;;;;10.30;3.30;;;;;;;;;;5130306;27;24413;-59
2022/01/28 10:31:34;;;;;;;11.37;3.67;;;;;;;;;;5129761;27;24508;-60
2022/01/28 10:34:09;;;;;;;9.20;3.38;;;;;;;;;;5130266;27;24485;-59
2022/01/28 10:36:34;;;;;;;12.55;3.88;;;;;;;;;;5129730;27;24713;-59
2022/01/28 10:38:59;;;;;;;11.07;3.97;;;;;;;;;;5130095;27;24836;-58
2022/01/28 10:41:25;;;;;;;9.50;3.40;;;;;;;;;;5129979;27;24434;-60
2022/01/28 10:43:52;;;;;;;13.93;4.03;;;;;;;;;;5129785;27;24394;-59
2022/01/28 10:46:22;;;;;;;12.60;3.85;;;;;;;;;;5129690;27;24450;-58
2022/01/28 10:48:49;;;;;;;11.23;3.80;;;;;;;;;;5129996;27;24472;-58
2022/01/28 10:51:14;;;;;;;11.02;4.20;;;;;;;;;;5129522;27;24445;-58
2022/01/28 10:53:39;;;;;;;12.32;4.00;;;;;;;;;;5129687;27;24549;-58
2022/01/28 10:56:10;;;;;;;12.07;4.20;;;;;;;;;;5129634;27;24432;-58
2022/01/28 10:58:37;;;;;;;9.02;3.80;;;;;;;;;;5129230;27;24946;-59
2022/01/28 11:01:02;;;;;;;13.93;3.80;;;;;;;;;;5129356;27;24413;-58
2022/01/28 11:03:27;;;;;;;11.77;3.83;;;;;;;;;;5129895;27;24398;-59
2022/01/28 11:05:59;;;;;;;10.23;3.90;;;;;;;;;;5129246;27;24400;-58
2022/01/28 11:08:31;;;;;;;10.32;4.10;;;;;;;;;;5129623;27;24426;-59
2022/01/28 11:10:57;;;;;;;11.45;4.07;;;;;;;;;;5129249;27;24429;-58
2022/01/28 11:13:22;;;;;;;10.10;3.70;;;;;;;;;;5129217;27;24397;-58
2022/01/28 11:15:48;;;;;;;8.47;3.40;;;;;;;;;;5128978;27;24416;-58
2022/01/28 11:18:13;;;;;;;16.27;4.30;;;;;;;;;;5129239;27;24510;-59
2022/01/28 11:20:39;;;;;;;13.50;3.83;;;;;;;;;;5129219;27;24914;-59
2022/01/28 11:23:19;;;;;;;10.90;4.10;;;;;;;;;;5129657;27;24420;-59
2022/01/28 11:26:03;;;;;;;10.23;3.70;;;;;;;;;;5128580;27;24397;-59
2022/01/28 11:28:39;;;;;;;14.50;3.60;;;;;;;;;;5129490;27;24812;-59
2022/01/28 11:31:04;;;;;;;8.10;3.33;;;;;;;;;;5128646;27;24424;-60
2022/01/28 11:33:42;;;;;;;11.70;3.77;;;;;;;;;;5110834;27;24435;-59
2022/01/28 11:36:07;;;;;;;13.20;3.78;;;;;;;;;;5128693;27;24473;-59
2022/01/28 11:38:40;;;;;;;12.25;3.90;;;;;;;;;;5128707;27;24536;-59
2022/01/28 11:41:07;;;;;;;9.38;3.20;;;;;;;;;;5129142;27;24400;-59
2022/01/28 11:43:33;;;;;;;10.50;3.20;;;;;;;;;;5128428;27;24969;-59
2022/01/28 11:46:04;;;;;;;8.47;3.30;;;;;;;;;;5126586;27;24472;-59
2022/01/28 11:48:48;;;;;;;9.90;3.80;;;;;;;;;;5126779;27;24425;-60
2022/01/28 11:51:16;;;;;;;12.93;3.90;;;;;;;;;;5128590;27;24859;-59
2022/01/28 11:53:52;;;;;;;10.40;3.58;;;;;;;;;;5128352;27;24434;-60
2022/01/28 11:56:17;;;;;;;8.98;3.38;;;;;;;;;;5128844;27;24997;-59
2022/01/28 11:58:52;;;;;;;13.32;3.67;;;;;;;;;;5128561;27;24551;-59
2022/01/28 12:01:24;;;;;;;14.68;3.90;;;;;;;;;;5128770;27;24461;-59
2022/01/28 12:03:50;;;;;;;10.32;3.13;;;;;;;;;;5128567;27;24389;-60
2022/01/28 12:06:17;;;;;;;11.03;3.50;;;;;;;;;;5128279;27;24412;-60
2022/01/28 12:08:43;;;;;;;9.80;3.33;;;;;;;;;;5128262;27;24470;-60
2022/01/28 12:11:10;;;;;;;10.93;3.13;;;;;;;;;;5127908;27;24460;-60
2022/01/28 12:13:50;;;;;;;12.05;3.90;;;;;;;;;;5128299;27;24389;-60
2022/01/28 12:16:25;;;;;;;8.30;3.50;;;;;;;;;;5128255;27;24465;-60
2022/01/28 12:18:53;;;;;;;8.33;3.13;;;;;;;;;;5128243;27;24562;-60
2022/01/28 12:21:28;;;;;;;11.20;4.15;;;;;;;;;;5128608;27;24398;-59
2022/01/28 12:23:55;;;;;;;9.38;3.42;;;;;;;;;;5128118;27;24408;-60
2022/01/28 12:26:20;;;;;;;11.03;3.53;;;;;;;;;;5127652;27;24539;-59
2022/01/28 12:28:53;;;;;;;10.30;3.60;;;;;;;;;;5126065;27;24401;-58
2022/01/28 12:31:22;;;;;;;7.88;3.25;;;;;;;;;;5127698;27;24415;-59
2022/01/28 12:33:49;;;;;;;8.13;3.08;;;;;;;;;;5125079;27;25196;-59
2022/01/28 12:36:16;;;;;;;9.88;4.13;;;;;;;;;;5121005;27;24481;-59
2022/01/28 12:38:44;;;;;;;9.32;3.40;;;;;;;;;;5126798;27;24456;-59
2022/01/28 12:41:12;;;;;;;11.68;3.63;;;;;;;;;;5125826;27;24505;-59
2022/01/28 12:43:38;;;;;;;10.13;3.50;;;;;;;;;;5124671;27;24453;-59
2022/01/28 12:46:03;;;;;;;9.05;3.10;;;;;;;;;;5106163;27;24831;-59
2022/01/28 12:48:28;;;;;;;7.60;3.20;;;;;;;;;;5127318;27;24470;-59
2022/01/28 12:50:54;;;;;;;8.97;3.10;;;;;;;;;;5123729;27;24437;-58
2022/01/28 12:53:39;;;;;;;11.88;4.10;;;;;;;;;;5125543;27;24825;-58
2022/01/28 12:56:05;;;;;;;7.97;3.05;;;;;;;;;;5118131;27;24428;-58
2022/01/28 12:58:37;;;;;;;11.83;3.30;;;;;;;;;;5121307;27;24401;-58
2022/01/28 13:01:13;;;;;;;11.15;3.70;;;;;;;;;;5123988;27;24447;-59
2022/01/28 13:03:47;;;;;;;12.97;3.70;;;;;;;;;;5123825;28;24424;-58
2022/01/28 13:06:23;;;;;;;7.68;3.58;;;;;;;;;;5123316;28;24477;-58
2022/01/28 13:08:48;;;;;;;10.05;3.90;;;;;;;;;;5120653;28;24462;-59
2022/01/28 13:11:14;;;;;;;12.65;3.72;;;;;;;;;;5124446;28;24468;-59
2022/01/28 13:13:55;;;;;;;10.37;3.30;;;;;;;;;;5121757;28;24438;-58
2022/01/28 13:16:34;;;;;;;11.70;3.70;;;;;;;;;;5124768;28;24440;-58
2022/01/28 13:19:01;;;;;;;11.27;3.63;;;;;;;;;;5123568;28;24497;-58
2022/01/28 13:21:26;;;;;;;11.25;3.10;;;;;;;;;;5122183;28;24508;-58
2022/01/28 13:24:24;;;;;;;8.30;3.10;;;;;;;;;;5123862;28;24448;-58
2022/01/28 13:26:55;;;;;;;9.15;3.20;;;;;;;;;;5075432;28;24521;-59
2022/01/28 13:29:29;;;;;;;8.35;3.13;;;;;;;;;;5108791;28;24850;-59
2022/01/28 13:31:58;;;;;;;10.03;3.80;;;;;;;;;;5106291;28;24529;-59
2022/01/28 13:34:23;;;;;;;7.72;3.40;;;;;;;;;;5123512;28;24420;-58
2022/01/28 13:36:50;;;;;;;10.53;3.30;;;;;;;;;;5123853;28;24413;-58
2022/01/28 13:39:17;;;;;;;9.63;3.20;;;;;;;;;;5123221;28;24576;-59
2022/01/28 13:41:42;;;;;;;8.27;3.22;;;;;;;;;;5123400;28;24774;-58
2022/01/28 13:44:24;;;;;;;7.77;3.10;;;;;;;;;;5122470;27;24413;-59
2022/01/28 13:46:59;;;;;;;9.73;3.53;;;;;;;;;;5124685;27;24431;-59
2022/01/28 13:49:32;;;;;;;9.50;3.40;;;;;;;;;;5124324;28;24868;-59
2022/01/28 13:52:09;;;;;;;8.50;3.70;;;;;;;;;;5123489;28;24416;-59
2022/01/28 13:54:34;;;;;;;7.90;3.15;;;;;;;;;;5130285;27;24945;-59
2022/01/28 13:57:01;;;;;;;7.87;3.10;;;;;;;;;;5130100;27;24428;-59
2022/01/28 13:59:29;;;;;;;10.82;3.40;;;;;;;;;;5130846;27;24431;-59
2022/01/28 14:01:56;;;;;;;11.88;3.97;;;;;;;;;;5130667;27;25020;-58
2022/01/28 14:04:37;;;;;;;10.55;3.47;;;;;;;;;;5130858;27;24409;-58
2022/01/28 14:07:16;;;;;;;9.50;3.65;;;;;;;;;;5110242;28;24393;-58
2022/01/28 14:09:42;;;;;;;9.13;3.00;;;;;;;;;;5127647;27;24780;-58
2022/01/28 14:12:09;;;;;;;11.18;3.70;;;;;;;;;;5129135;27;25048;-58
2022/01/28 14:14:42;;;;;;;11.48;3.53;;;;;;;;;;5127618;27;24421;-58
2022/01/28 14:17:09;;;;;;;8.63;3.50;;;;;;;;;;5128050;27;24466;-59
2022/01/28 14:19:35;;;;;;;9.73;3.10;;;;;;;;;;5131118;27;24386;-59
2022/01/28 14:22:01;;;;;;;8.70;3.15;;;;;;;;;;5128807;27;24772;-59
2022/01/28 14:24:27;;;;;;;10.90;3.85;;;;;;;;;;5127324;27;24999;-59
2022/01/28 14:27:12;;;;;;;7.65;3.17;;;;;;;;;;5126369;27;25153;-59
2022/01/28 14:29:50;;;;;;;9.50;3.45;;;;;;;;;;5130369;27;24520;-59
2022/01/28 14:32:18;;;;;;;12.18;3.72;;;;;;;;;;5130594;27;24393;-59
2022/01/28 14:34:44;;;;;;;11.07;3.30;;;;;;;;;;5127142;27;24486;-58
2022/01/28 14:37:09;;;;;;;11.75;4.05;;;;;;;;;;5126574;27;24445;-59
2022/01/28 14:39:38;;;;;;;8.90;3.35;;;;;;;;;;5128672;27;25081;-58
2022/01/28 14:42:07;;;;;;;10.13;3.50;;;;;;;;;;5130320;27;24442;-59
2022/01/28 14:44:34;;;;;;;12.70;3.88;;;;;;;;;;5129997;27;24480;-58
2022/01/28 14:46:59;;;;;;;11.70;3.70;;;;;;;;;;5129942;27;24400;-58
2022/01/28 14:49:24;;;;;;;10.93;3.80;;;;;;;;;;5129002;27;24401;-58
2022/01/28 14:51:55;;;;;;;10.67;4.00;;;;;;;;;;5129299;27;24520;-59
2022/01/28 14:54:26;;;;;;;11.57;4.10;;;;;;;;;;5129401;27;24405;-58
2022/01/28 14:56:51;;;;;;;7.88;3.40;;;;;;;;;;5128881;27;24911;-58
2022/01/28 14:59:16;;;;;;;9.98;3.65;;;;;;;;;;5129010;27;24444;-59
2022/01/28 15:01:41;;;;;;;11.25;3.75;;;;;;;;;;5128853;27;24557;-59
2022/01/28 15:04:06;;;;;;;8.68;3.60;;;;;;;;;;5128279;27;24413;-58
2022/01/28 15:06:32;;;;;;;12.20;4.13;;;;;;;;;;5120144;27;24417;-58
2022/01/28 15:09:00;;;;;;;9.40;3.40;;;;;;;;;;5125701;27;24485;-58
2022/01/28 15:11:43;;;;;;;10.48;2.90;;;;;;;;;;5124679;27;24470;-59
2022/01/28 15:14:10;;;;;;;7.40;3.10;;;;;;;;;;5128749;27;24843;-59
2022/01/28 15:16:35;;;;;;;10.88;3.70;;;;;;;;;;5129054;27;24401;-59
2022/01/28 15:19:00;;;;;;;6.40;2.83;;;;;;;;;;5126662;27;24416;-58
2022/01/28 15:21:25;;;;;;;12.93;4.03;;;;;;;;;;5124974;27;24425;-59
2022/01/28 15:23:50;;;;;;;9.85;3.33;;;;;;;;;;5125873;27;24984;-60
2022/01/28 15:26:16;;;;;;;8.87;3.67;;;;;;;;;;5129457;27;24397;-58
2022/01/28 15:28:59;;;;;;;10.33;4.00;;;;;;;;;;5129483;27;25002;-59
2022/01/28 15:34:22;;;;;;;12.13;3.60;;;;;;;;;;5117756;27;25032;-60
2022/01/28 15:36:47;;;;;;;12.73;4.20;;;;;;;;;;5128291;27;24417;-59
2022/01/28 15:39:12;;;;;;;10.70;3.47;;;;;;;;;;5127936;27;24501;-59
2022/01/28 15:41:38;;;;;;;9.40;3.80;;;;;;;;;;5128471;27;24405;-59
2022/01/28 15:44:03;;;;;;;12.35;3.80;;;;;;;;;;5107715;27;24433;-58
2022/01/28 15:46:28;;;;;;;12.43;3.43;;;;;;;;;;5107875;28;24416;-59
2022/01/28 15:48:53;;;;;;;9.43;3.50;;;;;;;;;;5115313;27;24466;-58
2022/01/28 15:51:19;;;;;;;10.93;3.77;;;;;;;;;;5127988;27;24506;-58
2022/01/28 15:53:44;;;;;;;13.00;3.88;;;;;;;;;;5125634;27;24425;-59
2022/01/28 15:56:10;;;;;;;9.23;3.72;;;;;;;;;;5127051;27;24525;-59
2022/01/28 15:58:35;;;;;;;11.30;4.00;;;;;;;;;;5126421;27;24808;-58
2022/01/28 16:01:00;;;;;;;9.25;3.17;;;;;;;;;;5128192;27;24918;-59
2022/01/28 16:03:25;;;;;;;11.57;5.22;;;;;;;;;;5121176;27;24464;-58
2022/01/28 16:05:51;;;;;;;18.00;8.35;;;;;;;;;;5122593;27;24416;-59
2022/01/28 16:08:16;;;;;;;28.13;13.18;;;;;;;;;;5128475;27;24389;-58
2022/01/28 16:11:01;;;;;;;36.80;15.80;;;;;;;;;;5128191;27;24509;-59